createdAt,value
2023-01-02T00:01:55.369Z,11.36
2023-01-02T00:04:22.960Z,11.04
2023-01-02T00:06:50.660Z,11.28
2023-01-02T00:09:19.894Z,11.12
2023-01-02T00:11:47.502Z,11.18
2023-01-02T00:14:15.094Z,11.25
2023-01-02T00:16:42.883Z,11.41
2023-01-02T00:19:10.489Z,11.44
2023-01-02T00:21:38.112Z,11.26
2023-01-02T00:24:06.451Z,11.35
2023-01-02T00:26:35.393Z,11.20
2023-01-02T00:29:03.072Z,11.35
2023-01-02T00:31:30.732Z,11.17
2023-01-02T00:33:58.515Z,11.67
2023-01-02T00:36:26.499Z,11.55
2023-01-02T00:38:56.373Z,11.42
2023-01-02T00:41:24.605Z,11.31
2023-01-02T00:43:53.574Z,11.29
2023-01-02T00:46:21.170Z,11.14
2023-01-02T00:48:48.825Z,11.56
2023-01-02T00:51:16.422Z,11.23
2023-01-02T00:53:44.025Z,11.54
2023-01-02T00:56:11.680Z,11.55
2023-01-02T00:58:39.265Z,11.59
2023-01-02T01:01:08.424Z,11.36
2023-01-02T01:03:36.066Z,11.70
2023-01-02T01:06:08.356Z,11.55
2023-01-02T01:08:36.936Z,11.86
2023-01-02T01:11:08.984Z,11.70
2023-01-02T01:13:37.372Z,11.64
2023-01-02T01:16:06.431Z,11.81
2023-01-02T01:18:36.042Z,11.72
2023-01-02T01:21:07.439Z,11.70
2023-01-02T01:23:35.048Z,11.58
2023-01-02T01:26:05.079Z,11.82
2023-01-02T01:28:32.886Z,11.66
2023-01-02T01:31:04.481Z,11.86
2023-01-02T01:33:32.607Z,11.85
2023-01-02T01:36:05.391Z,11.71
2023-01-02T01:38:33.794Z,11.82
2023-01-02T01:41:02.063Z,11.46
2023-01-02T01:43:37.624Z,11.60
2023-01-02T01:46:08.060Z,11.67
2023-01-02T01:48:35.996Z,11.80
2023-01-02T01:51:05.306Z,11.77
2023-01-02T01:53:33.965Z,11.72
2023-01-02T01:56:04.749Z,11.77
2023-01-02T01:58:35.459Z,11.53
2023-01-02T02:01:04.350Z,11.47
2023-01-02T02:03:34.710Z,11.60
2023-01-02T02:06:03.227Z,11.73
2023-01-02T02:08:38.531Z,11.75
2023-01-02T02:11:07.002Z,11.87
2023-01-02T02:13:35.544Z,11.64
2023-01-02T02:16:13.836Z,11.67
2023-01-02T02:18:53.786Z,11.64
2023-01-02T02:21:37.900Z,11.41
2023-01-02T02:24:37.360Z,11.62
2023-01-02T02:27:32.720Z,11.54
2023-01-02T02:30:14.031Z,11.39
2023-01-02T02:33:02.825Z,11.35
2023-01-02T02:35:42.199Z,11.46
2023-01-02T02:38:15.624Z,11.59
2023-01-02T02:40:56.915Z,11.55
2023-01-02T02:43:36.256Z,11.48
2023-01-02T02:46:13.820Z,11.46
2023-01-02T02:48:52.605Z,11.40
2023-01-02T02:51:25.524Z,11.21
2023-01-02T02:53:57.422Z,11.22
2023-01-02T02:56:28.304Z,11.23
2023-01-02T02:58:56.571Z,11.55
2023-01-02T03:01:31.056Z,11.51
2023-01-02T03:03:58.964Z,11.43
2023-01-02T03:06:46.383Z,11.56
2023-01-02T03:09:19.815Z,11.30
2023-01-02T03:12:02.159Z,11.47
2023-01-02T03:14:34.387Z,11.52
2023-01-02T03:17:08.060Z,11.39
2023-01-02T03:19:41.208Z,11.58
2023-01-02T03:22:14.086Z,11.14
2023-01-02T03:24:44.089Z,11.22
2023-01-02T03:27:16.980Z,11.42
2023-01-02T03:29:48.426Z,11.54
2023-01-02T03:32:23.691Z,11.47
2023-01-02T03:34:52.638Z,11.44
2023-01-02T03:37:23.599Z,11.23
2023-01-02T03:39:55.591Z,11.33
2023-01-02T03:42:28.359Z,11.27
2023-01-02T03:45:02.597Z,11.12
2023-01-02T03:47:38.537Z,11.15
2023-01-02T03:50:11.395Z,11.26
2023-01-02T03:52:39.025Z,11.07
2023-01-02T03:55:08.301Z,11.05
2023-01-02T03:57:52.157Z,11.09
2023-01-02T04:00:24.326Z,11.15
2023-01-02T04:02:57.797Z,11.19
2023-01-02T04:05:30.697Z,11.01
2023-01-02T04:08:03.845Z,10.95
2023-01-02T04:10:35.124Z,11.20
2023-01-02T04:13:05.664Z,11.11
2023-01-02T04:15:37.007Z,11.16
2023-01-02T04:18:11.057Z,10.90
2023-01-02T04:20:41.786Z,11.09
2023-01-02T04:23:14.547Z,10.83
2023-01-02T04:25:46.252Z,11.08
2023-01-02T04:28:18.859Z,10.82
2023-01-02T04:30:53.484Z,10.71
2023-01-02T04:33:25.232Z,10.75
2023-01-02T04:35:52.855Z,10.85
2023-01-02T04:38:20.483Z,11.08
2023-01-02T04:40:48.361Z,10.96
2023-01-02T04:43:19.935Z,11.00
2023-01-02T04:45:48.294Z,11.00
2023-01-02T04:48:16.468Z,11.10
2023-01-02T04:50:46.069Z,11.06
2023-01-02T04:53:13.621Z,11.05
2023-01-02T04:55:41.286Z,10.98
2023-01-02T04:58:09.278Z,10.85
2023-01-02T05:00:36.959Z,10.87
2023-01-02T05:03:05.438Z,10.98
2023-01-02T05:05:33.275Z,10.99
2023-01-02T05:08:02.284Z,10.81
2023-01-02T05:10:29.881Z,10.85
2023-01-02T05:12:59.183Z,10.80
2023-01-02T05:15:26.960Z,11.06
2023-01-02T05:17:54.712Z,11.08
2023-01-02T05:20:22.382Z,11.01
2023-01-02T05:23:07.967Z,11.00
2023-01-02T05:25:37.298Z,10.89
2023-01-02T05:28:05.723Z,11.01
2023-01-02T05:30:33.329Z,11.18
2023-01-02T05:33:00.906Z,11.10
2023-01-02T05:35:32.479Z,11.10
2023-01-02T05:38:01.272Z,10.88
2023-01-02T05:40:28.916Z,11.19
2023-01-02T05:42:59.070Z,11.09
2023-01-02T05:45:26.795Z,11.02
2023-01-02T05:47:54.451Z,10.97
2023-01-02T05:50:22.006Z,10.83
2023-01-02T05:52:49.704Z,10.76
2023-01-02T05:55:17.437Z,10.95
2023-01-02T05:57:45.202Z,10.79
2023-01-02T06:00:15.456Z,10.85
2023-01-02T06:02:47.709Z,10.77
2023-01-02T06:05:16.177Z,10.84
2023-01-02T06:07:43.787Z,10.84
2023-01-02T06:10:11.476Z,10.90
2023-01-02T06:12:39.020Z,10.62
2023-01-02T06:15:07.443Z,10.91
2023-01-02T06:17:36.422Z,11.10
2023-01-02T06:20:04.657Z,11.08
2023-01-02T06:22:32.221Z,10.84
2023-01-02T06:24:59.786Z,10.93
2023-01-02T06:27:27.438Z,10.97
2023-01-02T06:29:55.105Z,11.00
2023-01-02T06:32:22.678Z,10.96
2023-01-02T06:34:51.570Z,11.00
2023-01-02T06:37:19.157Z,11.19
2023-01-02T06:39:46.737Z,11.25
2023-01-02T06:42:14.340Z,11.23
2023-01-02T06:44:41.919Z,11.26
2023-01-02T06:47:09.479Z,12.90
2023-01-02T06:49:37.111Z,13.35
2023-01-02T06:52:06.210Z,13.77
2023-01-02T06:54:34.010Z,14.34
2023-01-02T06:57:01.623Z,14.22
2023-01-02T06:59:29.200Z,14.17
2023-01-02T07:01:56.954Z,14.53
2023-01-02T07:04:24.524Z,14.52
2023-01-02T07:06:52.075Z,14.62
2023-01-02T07:09:21.011Z,14.63
2023-01-02T07:11:48.557Z,14.69
2023-01-02T07:14:16.407Z,14.65
2023-01-02T07:16:44.181Z,14.62
2023-01-02T07:19:12.040Z,14.61
2023-01-02T07:21:39.709Z,14.50
2023-01-02T07:24:08.100Z,14.71
2023-01-02T07:26:37.035Z,14.71
2023-01-02T07:29:04.757Z,14.74
2023-01-02T07:31:32.367Z,14.66
2023-01-02T07:34:00.034Z,14.70
2023-01-02T07:36:27.660Z,14.66
2023-01-02T07:38:57.194Z,14.74
2023-01-02T07:41:26.073Z,14.78
2023-01-02T07:43:56.230Z,14.82
2023-01-02T07:46:24.381Z,14.80
2023-01-02T07:48:52.179Z,14.80
2023-01-02T07:51:26.606Z,14.97
2023-01-02T07:53:54.861Z,14.88
2023-01-02T07:56:22.479Z,14.90
2023-01-02T07:58:50.111Z,14.93
2023-01-02T08:01:19.224Z,14.95
2023-01-02T08:03:46.960Z,14.88
2023-01-02T08:06:17.581Z,14.87
2023-01-02T08:08:45.464Z,14.94
2023-01-02T08:11:14.864Z,14.99
2023-01-02T08:13:42.818Z,15.00
2023-01-02T08:16:12.556Z,14.98
2023-01-02T08:18:41.530Z,14.95
2023-01-02T08:21:10.267Z,14.99
2023-01-02T08:23:38.626Z,15.02
2023-01-02T08:26:08.047Z,15.01
2023-01-02T08:28:36.537Z,14.98
2023-01-02T08:31:10.195Z,14.95
2023-01-02T08:33:37.882Z,14.98
2023-01-02T08:36:07.535Z,15.02
2023-01-02T08:38:35.149Z,14.98
2023-01-02T08:41:02.753Z,14.99
2023-01-02T08:43:30.428Z,14.95
2023-01-02T08:45:58.092Z,15.06
2023-01-02T08:48:25.651Z,15.03
2023-01-02T08:50:53.265Z,15.04
2023-01-02T08:53:22.279Z,15.07
2023-01-02T08:55:49.889Z,15.06
2023-01-02T08:58:17.477Z,15.12
2023-01-02T09:00:45.051Z,15.12
2023-01-02T09:03:12.658Z,15.16
2023-01-02T09:05:40.325Z,15.19
2023-01-02T09:08:07.933Z,15.18
2023-01-02T09:10:36.862Z,15.27
2023-01-02T09:13:04.549Z,15.18
2023-01-02T09:15:32.343Z,15.20
2023-01-02T09:18:00.266Z,15.15
2023-01-02T09:20:27.923Z,15.16
2023-01-02T09:22:55.577Z,15.22
2023-01-02T09:25:24.521Z,15.17
2023-01-02T09:27:54.056Z,15.18
2023-01-02T09:30:21.766Z,15.21
2023-01-02T09:32:51.042Z,15.20
2023-01-02T09:35:18.699Z,15.21
2023-01-02T09:37:46.273Z,15.28
2023-01-02T09:40:14.813Z,15.41
2023-01-02T09:42:45.193Z,15.47
2023-01-02T09:45:15.418Z,15.55
2023-01-02T09:47:45.007Z,15.66
2023-01-02T09:50:18.645Z,15.75
2023-01-02T09:52:51.328Z,15.80
2023-01-02T09:55:24.787Z,15.91
2023-01-02T09:58:00.350Z,15.90
2023-01-02T10:00:35.396Z,15.96
2023-01-02T10:03:11.211Z,15.81
2023-01-02T10:06:06.153Z,15.69
2023-01-02T10:08:42.287Z,15.67
2023-01-02T10:11:24.275Z,15.72
2023-01-02T10:16:51.307Z,15.51
2023-01-02T10:19:23.635Z,15.37
2023-01-02T10:21:53.284Z,15.37
2023-01-02T10:24:25.801Z,15.35
2023-01-02T10:26:54.776Z,15.26
2023-01-02T10:29:29.490Z,15.18
2023-01-02T10:32:01.411Z,15.26
2023-01-02T10:34:38.741Z,15.33
2023-01-02T10:37:13.565Z,15.12
2023-01-02T10:39:43.292Z,15.22
2023-01-02T10:42:13.313Z,15.02
2023-01-02T10:44:42.426Z,14.95
2023-01-02T10:47:19.319Z,14.87
2023-01-02T10:49:48.077Z,14.88
2023-01-02T10:52:22.498Z,14.91
2023-01-02T10:54:58.940Z,14.92
2023-01-02T10:57:38.808Z,15.02
2023-01-02T11:00:28.097Z,15.00
2023-01-02T11:03:00.295Z,15.10
2023-01-02T11:05:29.907Z,15.09
2023-01-02T11:07:58.686Z,15.05
2023-01-02T11:10:29.031Z,15.04
2023-01-02T11:12:57.581Z,15.07
2023-01-02T11:15:27.691Z,15.18
2023-01-02T11:17:57.493Z,15.10
2023-01-02T11:20:29.016Z,15.06
2023-01-02T11:22:59.114Z,15.03
2023-01-02T11:25:29.085Z,14.94
2023-01-02T11:28:01.718Z,14.84
2023-01-02T11:30:36.813Z,14.73
2023-01-02T11:33:19.243Z,14.68
2023-01-02T11:35:49.652Z,14.54
2023-01-02T11:38:29.966Z,14.44
2023-01-02T11:41:00.555Z,14.23
2023-01-02T11:43:49.034Z,14.19
2023-01-02T11:46:28.351Z,14.10
2023-01-02T11:49:01.915Z,14.02
2023-01-02T11:51:32.680Z,14.01
2023-01-02T11:54:03.903Z,13.92
2023-01-02T11:56:35.735Z,13.83
2023-01-02T11:59:06.528Z,13.79
2023-01-02T12:01:47.339Z,13.75
2023-01-02T12:04:17.054Z,13.71
2023-01-02T12:07:07.458Z,13.67
2023-01-02T12:09:46.492Z,13.60
2023-01-02T12:12:29.816Z,13.52
2023-01-02T12:15:19.465Z,13.44
2023-01-02T12:17:53.346Z,13.43
2023-01-02T12:20:37.961Z,13.34
2023-01-02T12:23:28.904Z,13.28
2023-01-02T12:26:09.627Z,13.10
2023-01-02T12:29:46.399Z,12.99
2023-01-02T12:32:22.367Z,12.92
2023-01-02T12:35:04.866Z,13.06
2023-01-02T12:37:44.865Z,12.95
2023-01-02T12:40:34.665Z,12.88
2023-01-02T12:43:17.853Z,12.76
2023-01-02T12:45:54.278Z,12.70
2023-01-02T12:48:36.742Z,12.72
2023-01-02T12:51:13.959Z,12.73
2023-01-02T12:54:18.614Z,12.92
2023-01-02T12:56:49.091Z,12.90
2023-01-02T12:59:38.664Z,12.93
2023-01-02T13:02:16.246Z,13.05
2023-01-02T13:04:50.527Z,13.13
2023-01-02T13:07:31.029Z,13.26
2023-01-02T13:10:03.592Z,13.41
2023-01-02T13:12:33.056Z,13.29
2023-01-02T13:15:03.866Z,13.25
2023-01-02T13:17:48.531Z,13.24
2023-01-02T13:20:30.809Z,13.24
2023-01-02T13:23:10.676Z,13.19
2023-01-02T13:25:47.363Z,13.12
2023-01-02T13:28:15.978Z,13.26
2023-01-02T13:31:26.583Z,13.22
2023-01-02T13:33:48.459Z,13.12
2023-01-02T13:36:21.466Z,13.19
2023-01-02T13:38:53.337Z,13.15
2023-01-02T13:41:23.000Z,13.23
2023-01-02T13:43:54.836Z,13.25
2023-01-02T13:49:20.919Z,13.18
2023-01-02T13:51:48.785Z,13.17
2023-01-02T13:54:20.752Z,13.20
2023-01-02T13:57:17.572Z,13.19
2023-01-02T13:59:52.694Z,13.23
2023-01-02T14:02:22.607Z,13.29
2023-01-02T14:04:50.517Z,13.28
2023-01-02T14:07:44.161Z,13.29
2023-01-02T14:10:40.198Z,13.26
2023-01-02T14:13:26.495Z,13.37
2023-01-02T14:16:39.818Z,13.34
2023-01-02T14:19:18.520Z,13.27
2023-01-02T14:21:49.108Z,13.20
2023-01-02T14:24:30.058Z,13.18
2023-01-02T14:27:00.781Z,13.15
2023-01-02T14:29:31.507Z,13.07
2023-01-02T14:32:06.758Z,13.07
2023-01-02T14:34:35.833Z,13.04
2023-01-02T14:37:04.067Z,13.08
2023-01-02T14:39:36.707Z,13.07
2023-01-02T14:42:37.719Z,13.04
2023-01-02T14:45:12.011Z,13.03
2023-01-02T14:47:42.841Z,13.03
2023-01-02T14:50:15.449Z,13.01
2023-01-02T14:52:47.984Z,13.02
2023-01-02T14:55:19.511Z,13.05
2023-01-02T14:57:49.435Z,13.01
2023-01-02T15:00:24.638Z,13.08
2023-01-02T15:02:58.590Z,13.04
2023-01-02T15:05:35.582Z,13.02
2023-01-02T15:08:08.590Z,13.02
2023-01-02T15:10:56.137Z,12.89
2023-01-02T15:13:26.203Z,12.85
2023-01-02T15:15:59.695Z,12.85
2023-01-02T15:18:29.693Z,12.86
2023-01-02T15:21:03.951Z,12.87
2023-01-02T15:23:31.673Z,12.88
2023-01-02T15:26:31.907Z,12.89
2023-01-02T15:28:55.682Z,12.83
2023-01-02T15:31:24.670Z,12.85
2023-01-02T15:33:53.486Z,12.46
2023-01-02T15:36:32.884Z,12.03
2023-01-02T15:39:13.208Z,11.57
2023-01-02T15:41:46.072Z,11.13
2023-01-02T15:44:33.195Z,11.10
2023-01-02T15:47:02.352Z,11.02
2023-01-02T15:49:30.110Z,11.04
2023-01-02T15:51:58.952Z,11.04
2023-01-02T15:54:27.934Z,10.93
2023-01-02T15:57:06.204Z,10.69
2023-01-02T15:59:37.058Z,10.80
2023-01-02T16:02:08.535Z,10.59
2023-01-02T16:04:36.439Z,10.50
2023-01-02T16:07:15.809Z,10.49
2023-01-02T16:09:55.908Z,10.44
2023-01-02T16:12:24.577Z,10.33
2023-01-02T16:14:55.999Z,10.38
2023-01-02T16:17:28.672Z,10.29
2023-01-02T16:19:59.739Z,10.19
2023-01-02T16:22:32.005Z,10.30
2023-01-02T16:25:05.820Z,10.22
2023-01-02T16:27:35.975Z,10.21
2023-01-02T16:30:16.398Z,10.19
2023-01-02T16:32:52.394Z,10.25
2023-01-02T16:35:21.969Z,10.45
2023-01-02T16:37:52.896Z,10.49
2023-01-02T16:41:01.571Z,10.62
2023-01-02T16:43:31.536Z,10.44
2023-01-02T16:46:00.962Z,10.24
2023-01-02T16:48:31.037Z,10.52
2023-01-02T16:51:00.125Z,10.51
2023-01-02T16:53:30.966Z,10.39
2023-01-02T16:56:00.265Z,10.34
2023-01-02T16:58:29.216Z,10.17
2023-01-02T17:00:57.560Z,10.05
2023-01-02T17:03:27.989Z,10.17
2023-01-02T17:06:01.391Z,10.07
2023-01-02T17:08:31.867Z,10.06
2023-01-02T17:11:00.318Z,10.06
2023-01-02T17:13:29.538Z,10.08
2023-01-02T17:15:57.900Z,10.06
2023-01-02T17:18:26.312Z,10.04
2023-01-02T17:20:53.967Z,10.03
2023-01-02T17:23:22.883Z,10.02
2023-01-02T17:25:50.449Z,10.05
2023-01-02T17:28:18.083Z,10.12
2023-01-02T17:30:48.902Z,10.13
2023-01-02T17:33:16.790Z,10.11
2023-01-02T17:35:46.000Z,10.09
2023-01-02T17:38:13.742Z,10.16
2023-01-02T17:40:42.769Z,10.15
2023-01-02T17:43:10.709Z,10.22
2023-01-02T17:45:38.618Z,10.17
2023-01-02T17:48:11.448Z,10.21
2023-01-02T17:50:40.868Z,10.21
2023-01-02T17:53:09.021Z,10.23
2023-01-02T17:55:36.626Z,10.19
2023-01-02T17:58:05.591Z,10.24
2023-01-02T18:00:33.175Z,10.28
2023-01-02T18:03:00.822Z,10.27
2023-01-02T18:05:28.426Z,10.21
2023-01-02T18:07:56.033Z,10.28
2023-01-02T18:10:29.124Z,10.29
2023-01-02T18:13:00.326Z,10.26
2023-01-02T18:15:29.975Z,10.26
2023-01-02T18:18:00.939Z,10.27
2023-01-02T18:20:28.792Z,10.27
2023-01-02T18:22:57.962Z,10.24
2023-01-02T18:25:28.003Z,10.21
2023-01-02T18:27:59.058Z,10.22
2023-01-02T18:30:28.026Z,10.21
2023-01-02T18:33:04.771Z,10.17
2023-01-02T18:38:29.019Z,10.12
2023-01-02T18:40:56.763Z,10.12
2023-01-02T18:43:28.734Z,10.04
2023-01-02T18:45:59.992Z,10.04
2023-01-02T18:48:28.943Z,10.08
2023-01-02T18:50:59.242Z,9.97
2023-01-02T18:53:30.399Z,9.96
2023-01-02T18:56:01.935Z,9.89
2023-01-02T18:58:41.357Z,9.90
2023-01-02T19:01:27.797Z,9.84
2023-01-02T19:04:15.091Z,9.85
2023-01-02T19:06:52.434Z,9.70
2023-01-02T19:09:23.769Z,9.86
2023-01-02T19:12:10.597Z,9.75
2023-01-02T19:14:40.250Z,9.66
2023-01-02T19:17:19.478Z,9.74
2023-01-02T19:19:48.579Z,9.62
2023-01-02T19:22:18.416Z,9.67
2023-01-02T19:24:46.963Z,9.60
2023-01-02T19:27:23.980Z,9.67
2023-01-02T19:29:52.351Z,9.73
2023-01-02T19:32:30.681Z,9.55
2023-01-02T19:35:02.027Z,9.54
2023-01-02T19:37:39.120Z,9.63
2023-01-02T19:40:18.664Z,9.59
2023-01-02T19:42:47.499Z,9.58
2023-01-02T19:45:16.997Z,9.49
2023-01-02T19:47:45.093Z,9.62
2023-01-02T19:50:16.527Z,9.46
2023-01-02T19:52:44.363Z,9.41
2023-01-02T19:55:13.837Z,9.66
2023-01-02T19:57:41.602Z,9.47
2023-01-02T20:00:13.109Z,9.68
2023-01-02T20:02:41.587Z,9.67
2023-01-02T20:05:10.204Z,9.49
2023-01-02T20:07:39.342Z,9.67
2023-01-02T20:10:08.329Z,9.64
2023-01-02T20:12:40.384Z,9.73
2023-01-02T20:15:10.325Z,9.70
2023-01-02T20:17:39.205Z,9.85
2023-01-02T20:20:09.441Z,9.95
2023-01-02T20:22:41.288Z,10.07
2023-01-02T20:25:09.337Z,9.94
2023-01-02T20:27:37.639Z,9.71
2023-01-02T20:30:08.645Z,9.55
2023-01-02T20:32:36.548Z,9.63
2023-01-02T20:35:04.847Z,9.67
2023-01-02T20:37:32.761Z,9.61
2023-01-02T20:40:01.915Z,9.55
2023-01-02T20:42:29.646Z,9.40
2023-01-02T20:44:57.360Z,9.55
2023-01-02T20:47:25.138Z,9.58
2023-01-02T20:49:53.020Z,9.61
2023-01-02T20:52:21.232Z,9.62
2023-01-02T20:57:19.025Z,9.52
2023-01-02T20:59:46.849Z,9.63
2023-01-02T21:02:14.712Z,9.49
2023-01-02T21:04:42.396Z,9.32
2023-01-02T21:07:10.266Z,9.47
2023-01-02T21:09:37.923Z,9.57
2023-01-02T21:12:25.759Z,9.66
2023-01-02T21:14:54.791Z,9.41
2023-01-02T21:17:22.455Z,9.46
2023-01-02T21:19:50.165Z,9.42
2023-01-02T21:22:17.884Z,9.37
2023-01-02T21:24:45.621Z,9.31
2023-01-02T21:27:13.762Z,9.37
2023-01-02T21:29:41.752Z,9.20
2023-01-02T21:32:10.799Z,9.14
2023-01-02T21:34:38.516Z,9.13
2023-01-02T21:37:06.147Z,9.11
2023-01-02T21:39:33.746Z,9.11
2023-01-02T21:42:19.427Z,9.09
2023-01-02T21:44:48.158Z,9.03
2023-01-02T21:47:18.416Z,8.99
2023-01-02T21:49:46.111Z,9.10
2023-01-02T21:52:14.164Z,9.07
2023-01-02T21:54:41.857Z,9.08
2023-01-02T21:57:09.759Z,9.10
2023-01-02T21:59:37.425Z,9.22
2023-01-02T22:02:06.689Z,9.21
2023-01-02T22:04:36.083Z,9.21
2023-01-02T22:07:30.535Z,9.12
2023-01-02T22:09:51.972Z,9.05
2023-01-02T22:12:19.617Z,8.98
2023-01-02T22:14:47.337Z,8.97
2023-01-02T22:17:14.933Z,8.71
2023-01-02T22:19:44.530Z,8.89
2023-01-02T22:22:12.415Z,9.19
2023-01-02T22:24:44.507Z,9.32
2023-01-02T22:27:14.566Z,8.73
2023-01-02T22:32:33.476Z,8.78
2023-01-02T22:35:04.901Z,9.12
2023-01-02T22:37:32.487Z,9.07
2023-01-02T22:40:01.980Z,9.02
2023-01-02T22:42:59.616Z,8.97
2023-01-02T22:45:31.763Z,8.82
2023-01-02T22:48:02.673Z,8.81
2023-01-02T22:50:41.688Z,8.67
2023-01-02T22:53:16.498Z,8.68
2023-01-02T22:55:44.120Z,8.56
2023-01-02T22:58:12.270Z,8.54
2023-01-02T23:00:40.219Z,8.64
2023-01-02T23:03:13.055Z,8.67
2023-01-02T23:05:42.632Z,8.75
2023-01-02T23:08:10.299Z,8.76
2023-01-02T23:10:37.955Z,8.73
2023-01-02T23:13:05.680Z,8.51
2023-01-02T23:15:33.396Z,8.69
2023-01-02T23:18:18.450Z,8.73
2023-01-02T23:20:47.422Z,8.68
2023-01-02T23:23:15.088Z,8.60
2023-01-02T23:25:44.502Z,8.64
2023-01-02T23:28:31.864Z,8.68
2023-01-02T23:30:59.788Z,8.51
2023-01-02T23:33:27.399Z,8.55
2023-01-02T23:35:56.471Z,8.58
2023-01-02T23:38:24.227Z,8.49
2023-01-02T23:40:51.767Z,8.59
2023-01-02T23:43:19.336Z,8.53
2023-01-02T23:45:46.997Z,8.47
2023-01-02T23:48:14.588Z,8.52
2023-01-02T23:50:46.059Z,8.47
2023-01-02T23:53:14.995Z,8.46
2023-01-02T23:55:43.381Z,8.38
2023-01-02T23:58:11.539Z,8.24
